sensor_id;sensor_type;location;lat;lon;timestamp;pressure;altitude;pressure_sealevel;temperature;humidity
10470;BME280;5282;47.052;15.458;2023-04-27T00:00:03;97726.38;;;7.33;100.00
10470;BME280;5282;47.052;15.458;2023-04-27T00:02:37;97721.31;;;7.30;100.00
10470;BME280;5282;47.052;15.458;2023-04-27T00:05:05;97712.72;;;7.26;100.00
10470;BME280;5282;47.052;15.458;2023-04-27T00:07:32;97711.44;;;7.31;100.00
10470;BME280;5282;47.052;15.458;2023-04-27T00:09:59;97713.84;;;7.24;100.00
10470;BME280;5282;47.052;15.458;2023-04-27T00:12:26;97714.56;;;7.26;100.00
10470;BME280;5282;47.052;15.458;2023-04-27T00:14:53;97716.25;;;7.17;100.00
10470;BME280;5282;47.052;15.458;2023-04-27T00:17:20;97718.38;;;7.14;100.00
10470;BME280;5282;47.052;15.458;2023-04-27T00:19:47;97715.53;;;7.25;100.00
10470;BME280;5282;47.052;15.458;2023-04-27T00:22:15;97715.97;;;7.20;100.00
10470;BME280;5282;47.052;15.458;2023-04-27T00:24:42;97705.09;;;7.22;100.00
10470;BME280;5282;47.052;15.458;2023-04-27T00:27:09;97715.97;;;7.20;100.00
10470;BME280;5282;47.052;15.458;2023-04-27T00:29:38;97714.78;;;7.43;100.00
10470;BME280;5282;47.052;15.458;2023-04-27T00:32:08;97701.66;;;7.59;100.00
10470;BME280;5282;47.052;15.458;2023-04-27T00:34:35;97704.50;;;7.57;100.00
10470;BME280;5282;47.052;15.458;2023-04-27T00:37:04;97709.44;;;7.52;100.00
10470;BME280;5282;47.052;15.458;2023-04-27T00:39:34;97705.66;;;7.45;100.00
10470;BME280;5282;47.052;15.458;2023-04-27T00:42:04;97710.59;;;7.40;100.00
10470;BME280;5282;47.052;15.458;2023-04-27T00:44:36;97712.16;;;7.23;100.00
10470;BME280;5282;47.052;15.458;2023-04-27T00:47:03;97708.75;;;7.31;100.00
10470;BME280;5282;47.052;15.458;2023-04-27T00:49:31;97706.09;;;7.31;100.00
10470;BME280;5282;47.052;15.458;2023-04-27T00:51:59;97707.34;;;7.46;100.00
10470;BME280;5282;47.052;15.458;2023-04-27T00:54:26;97710.69;;;7.58;100.00
10470;BME280;5282;47.052;15.458;2023-04-27T00:56:54;97706.75;;;7.62;100.00
10470;BME280;5282;47.052;15.458;2023-04-27T00:59:22;97706.88;;;7.61;100.00
10470;BME280;5282;47.052;15.458;2023-04-27T01:01:49;97709.31;;;7.44;100.00
10470;BME280;5282;47.052;15.458;2023-04-27T01:04:17;97713.84;;;7.34;100.00
10470;BME280;5282;47.052;15.458;2023-04-27T01:06:44;97707.22;;;7.28;100.00
10470;BME280;5282;47.052;15.458;2023-04-27T01:09:11;97712.44;;;7.30;100.00
10470;BME280;5282;47.052;15.458;2023-04-27T01:11:38;97716.81;;;7.31;100.00
10470;BME280;5282;47.052;15.458;2023-04-27T01:14:06;97718.88;;;7.47;100.00
10470;BME280;5282;47.052;15.458;2023-04-27T01:16:34;97716.91;;;7.59;100.00
10470;BME280;5282;47.052;15.458;2023-04-27T01:19:02;97713.91;;;7.62;100.00
10470;BME280;5282;47.052;15.458;2023-04-27T01:21:29;97709.00;;;7.57;100.00
10470;BME280;5282;47.052;15.458;2023-04-27T01:23:58;97717.19;;;7.46;100.00
10470;BME280;5282;47.052;15.458;2023-04-27T01:26:25;97709.97;;;7.56;100.00
10470;BME280;5282;47.052;15.458;2023-04-27T01:28:52;97718.88;;;7.56;100.00
10470;BME280;5282;47.052;15.458;2023-04-27T01:31:18;97715.22;;;7.48;100.00
10470;BME280;5282;47.052;15.458;2023-04-27T01:33:46;97720.16;;;7.43;100.00
10470;BME280;5282;47.052;15.458;2023-04-27T01:36:12;97725.25;;;7.26;100.00
10470;BME280;5282;47.052;15.458;2023-04-27T01:38:39;97727.38;;;7.22;100.00
10470;BME280;5282;47.052;15.458;2023-04-27T01:41:08;97729.88;;;7.44;100.00
10470;BME280;5282;47.052;15.458;2023-04-27T01:43:35;97727.34;;;7.52;100.00
10470;BME280;5282;47.052;15.458;2023-04-27T01:46:06;97730.47;;;7.37;100.00
10470;BME280;5282;47.052;15.458;2023-04-27T01:48:33;97734.25;;;7.45;100.00
10470;BME280;5282;47.052;15.458;2023-04-27T01:51:01;97732.44;;;7.45;100.00
10470;BME280;5282;47.052;15.458;2023-04-27T01:53:28;97733.84;;;7.39;100.00
10470;BME280;5282;47.052;15.458;2023-04-27T01:55:55;97731.31;;;7.48;100.00
10470;BME280;5282;47.052;15.458;2023-04-27T01:58:25;97730.31;;;7.39;100.00
10470;BME280;5282;47.052;15.458;2023-04-27T02:00:52;97727.63;;;7.39;100.00
10470;BME280;5282;47.052;15.458;2023-04-27T02:03:20;97736.53;;;7.39;100.00
10470;BME280;5282;47.052;15.458;2023-04-27T02:05:47;97743.88;;;7.37;100.00
10470;BME280;5282;47.052;15.458;2023-04-27T02:08:13;97738.91;;;7.43;100.00
10470;BME280;5282;47.052;15.458;2023-04-27T02:10:41;97740.03;;;7.40;100.00
10470;BME280;5282;47.052;15.458;2023-04-27T02:13:08;97744.28;;;7.33;100.00
10470;BME280;5282;47.052;15.458;2023-04-27T02:15:37;97743.44;;;7.32;100.00
10470;BME280;5282;47.052;15.458;2023-04-27T02:18:05;97739.06;;;7.31;100.00
10470;BME280;5282;47.052;15.458;2023-04-27T02:20:32;97747.94;;;7.22;100.00
10470;BME280;5282;47.052;15.458;2023-04-27T02:22:59;97742.72;;;7.10;100.00
10470;BME280;5282;47.052;15.458;2023-04-27T02:25:26;97748.94;;;7.01;100.00
10470;BME280;5282;47.052;15.458;2023-04-27T02:27:54;97744.56;;;7.10;100.00
10470;BME280;5282;47.052;15.458;2023-04-27T02:30:20;97738.50;;;7.08;100.00
10470;BME280;5282;47.052;15.458;2023-04-27T02:32:49;97749.91;;;7.00;100.00
10470;BME280;5282;47.052;15.458;2023-04-27T02:35:15;97737.41;;;7.01;100.00
10470;BME280;5282;47.052;15.458;2023-04-27T02:37:42;97740.75;;;7.03;100.00
10470;BME280;5282;47.052;15.458;2023-04-27T02:40:10;97744.56;;;7.00;100.00
10470;BME280;5282;47.052;15.458;2023-04-27T02:42:37;97744.56;;;7.10;100.00
10470;BME280;5282;47.052;15.458;2023-04-27T02:45:05;97750.19;;;7.07;100.00
10470;BME280;5282;47.052;15.458;2023-04-27T02:47:33;97740.34;;;7.07;100.00
10470;BME280;5282;47.052;15.458;2023-04-27T02:50:01;97743.44;;;7.13;100.00
10470;BME280;5282;47.052;15.458;2023-04-27T02:52:28;97748.25;;;7.09;100.00
10470;BME280;5282;47.052;15.458;2023-04-27T02:54:55;97737.38;;;7.10;100.00
10470;BME280;5282;47.052;15.458;2023-04-27T02:57:22;97737.22;;;6.83;100.00
10470;BME280;5282;47.052;15.458;2023-04-27T02:59:49;97748.78;;;6.83;100.00
10470;BME280;5282;47.052;15.458;2023-04-27T03:02:16;97745.09;;;6.74;100.00
10470;BME280;5282;47.052;15.458;2023-04-27T03:04:43;97753.69;;;6.88;100.00
10470;BME280;5282;47.052;15.458;2023-04-27T03:07:11;97752.19;;;6.95;100.00
10470;BME280;5282;47.052;15.458;2023-04-27T03:09:41;97749.06;;;6.90;100.00
10470;BME280;5282;47.052;15.458;2023-04-27T03:12:08;97751.59;;;6.82;100.00
10470;BME280;5282;47.052;15.458;2023-04-27T03:14:35;97750.28;;;6.66;100.00
10470;BME280;5282;47.052;15.458;2023-04-27T03:17:02;97755.63;;;6.66;100.00
10470;BME280;5282;47.052;15.458;2023-04-27T03:19:29;97760.72;;;6.79;100.00
10470;BME280;5282;47.052;15.458;2023-04-27T03:21:56;97758.34;;;6.76;100.00
10470;BME280;5282;47.052;15.458;2023-04-27T03:24:24;97753.13;;;6.74;100.00
10470;BME280;5282;47.052;15.458;2023-04-27T03:26:51;97760.88;;;6.77;100.00
10470;BME280;5282;47.052;15.458;2023-04-27T03:29:18;97763.53;;;6.68;100.00
10470;BME280;5282;47.052;15.458;2023-04-27T03:31:45;97756.47;;;6.57;100.00
10470;BME280;5282;47.052;15.458;2023-04-27T03:34:12;97756.34;;;6.68;100.00
10470;BME280;5282;47.052;15.458;2023-04-27T03:36:39;97764.78;;;6.73;100.00
10470;BME280;5282;47.052;15.458;2023-04-27T03:39:08;97765.31;;;6.57;100.00
10470;BME280;5282;47.052;15.458;2023-04-27T03:41:36;97770.69;;;6.57;100.00
10470;BME280;5282;47.052;15.458;2023-04-27T03:44:03;97775.91;;;6.59;100.00
10470;BME280;5282;47.052;15.458;2023-04-27T03:46:30;97765.50;;;6.66;100.00
10470;BME280;5282;47.052;15.458;2023-04-27T03:48:57;97774.38;;;6.66;100.00
10470;BME280;5282;47.052;15.458;2023-04-27T03:51:24;97773.22;;;6.59;100.00
10470;BME280;5282;47.052;15.458;2023-04-27T03:53:51;97768.03;;;6.67;100.00
10470;BME280;5282;47.052;15.458;2023-04-27T03:56:18;97763.25;;;6.61;100.00
10470;BME280;5282;47.052;15.458;2023-04-27T03:58:46;97765.06;;;6.60;100.00
10470;BME280;5282;47.052;15.458;2023-04-27T04:01:13;97764.59;;;6.45;100.00
10470;BME280;5282;47.052;15.458;2023-04-27T04:03:41;97771.66;;;6.56;100.00
10470;BME280;5282;47.052;15.458;2023-04-27T04:06:08;97769.41;;;6.52;100.00
10470;BME280;5282;47.052;15.458;2023-04-27T04:08:37;97768.97;;;6.46;100.00
10470;BME280;5282;47.052;15.458;2023-04-27T04:11:04;97772.66;;;6.55;100.00
10470;BME280;5282;47.052;15.458;2023-04-27T04:13:31;97777.59;;;6.60;100.00
10470;BME280;5282;47.052;15.458;2023-04-27T04:16:02;97775.91;;;6.59;100.00
10470;BME280;5282;47.052;15.458;2023-04-27T04:18:29;97779.19;;;6.72;100.00
10470;BME280;5282;47.052;15.458;2023-04-27T04:20:56;97772.09;;;6.61;100.00
10470;BME280;5282;47.052;15.458;2023-04-27T04:23:23;97774.75;;;6.52;100.00
10470;BME280;5282;47.052;15.458;2023-04-27T04:25:52;97777.41;;;6.52;100.00
10470;BME280;5282;47.052;15.458;2023-04-27T04:28:18;97779.56;;;6.58;100.00
10470;BME280;5282;47.052;15.458;2023-04-27T04:30:45;97789.28;;;6.59;100.00
10470;BME280;5282;47.052;15.458;2023-04-27T04:33:14;97787.91;;;6.74;100.00
10470;BME280;5282;47.052;15.458;2023-04-27T04:35:41;97789.91;;;6.72;100.00
10470;BME280;5282;47.052;15.458;2023-04-27T04:38:08;97788.47;;;6.68;100.00
10470;BME280;5282;47.052;15.458;2023-04-27T04:40:38;97787.63;;;6.77;100.00
10470;BME280;5282;47.052;15.458;2023-04-27T04:43:05;97793.56;;;6.71;100.00
10470;BME280;5282;47.052;15.458;2023-04-27T04:45:32;97790.56;;;6.74;100.00
10470;BME280;5282;47.052;15.458;2023-04-27T04:47:59;97794.22;;;6.73;100.00
10470;BME280;5282;47.052;15.458;2023-04-27T04:50:28;97791.81;;;6.60;100.00
10470;BME280;5282;47.052;15.458;2023-04-27T04:52:55;97793.84;;;6.78;100.00
10470;BME280;5282;47.052;15.458;2023-04-27T04:55:21;97792.44;;;6.84;100.00
10470;BME280;5282;47.052;15.458;2023-04-27T04:57:48;97795.25;;;6.82;100.00
10470;BME280;5282;47.052;15.458;2023-04-27T05:00:16;97790.16;;;6.69;100.00
10470;BME280;5282;47.052;15.458;2023-04-27T05:02:43;97797.91;;;6.72;100.00
10470;BME280;5282;47.052;15.458;2023-04-27T05:05:10;97804.97;;;6.83;100.00
10470;BME280;5282;47.052;15.458;2023-04-27T05:07:38;97799.44;;;6.65;100.00
10470;BME280;5282;47.052;15.458;2023-04-27T05:10:05;97804.78;;;6.65;100.00
10470;BME280;5282;47.052;15.458;2023-04-27T05:12:35;97804.06;;;6.63;100.00
10470;BME280;5282;47.052;15.458;2023-04-27T05:15:02;97811.88;;;6.76;100.00
10470;BME280;5282;47.052;15.458;2023-04-27T05:17:30;97810.75;;;6.78;100.00
10470;BME280;5282;47.052;15.458;2023-04-27T05:19:59;97812.44;;;6.79;100.00
10470;BME280;5282;47.052;15.458;2023-04-27T05:22:26;97805.00;;;6.93;100.00
10470;BME280;5282;47.052;15.458;2023-04-27T05:24:54;97809.22;;;6.95;100.00
10470;BME280;5282;47.052;15.458;2023-04-27T05:27:21;97810.53;;;7.11;100.00
10470;BME280;5282;47.052;15.458;2023-04-27T05:29:48;97814.88;;;7.02;100.00
10470;BME280;5282;47.052;15.458;2023-04-27T05:32:15;97812.91;;;7.04;100.00
10470;BME280;5282;47.052;15.458;2023-04-27T05:34:42;97817.16;;;7.17;100.00
10470;BME280;5282;47.052;15.458;2023-04-27T05:37:09;97820.69;;;7.07;100.00
10470;BME280;5282;47.052;15.458;2023-04-27T05:39:36;97817.56;;;7.22;100.00
10470;BME280;5282;47.052;15.458;2023-04-27T05:42:05;97813.66;;;7.36;100.00
10470;BME280;5282;47.052;15.458;2023-04-27T05:44:32;97819.00;;;7.26;100.00
10470;BME280;5282;47.052;15.458;2023-04-27T05:47:00;97818.72;;;7.39;100.00
10470;BME280;5282;47.052;15.458;2023-04-27T05:49:27;97818.88;;;7.37;100.00
10470;BME280;5282;47.052;15.458;2023-04-27T05:51:54;97825.22;;;7.36;100.00
10470;BME280;5282;47.052;15.458;2023-04-27T05:54:23;97822.53;;;7.46;100.00
10470;BME280;5282;47.052;15.458;2023-04-27T05:56:50;97826.22;;;7.45;100.00
10470;BME280;5282;47.052;15.458;2023-04-27T05:59:18;97820.44;;;7.50;100.00
10470;BME280;5282;47.052;15.458;2023-04-27T06:01:46;97826.47;;;7.71;100.00
10470;BME280;5282;47.052;15.458;2023-04-27T06:04:13;97832.25;;;7.77;100.00
10470;BME280;5282;47.052;15.458;2023-04-27T06:06:40;97831.66;;;8.02;100.00
10470;BME280;5282;47.052;15.458;2023-04-27T06:09:07;97828.28;;;7.91;100.00
10470;BME280;5282;47.052;15.458;2023-04-27T06:11:33;97835.63;;;7.79;100.00
10470;BME280;5282;47.052;15.458;2023-04-27T06:14:02;97831.25;;;7.78;100.00
10470;BME280;5282;47.052;15.458;2023-04-27T06:16:30;97826.59;;;7.90;100.00
10470;BME280;5282;47.052;15.458;2023-04-27T06:18:57;97831.63;;;8.12;100.00
10470;BME280;5282;47.052;15.458;2023-04-27T06:21:23;97838.16;;;8.00;100.00
10470;BME280;5282;47.052;15.458;2023-04-27T06:23:50;97847.28;;;8.17;94.50
10470;BME280;5282;47.052;15.458;2023-04-27T06:26:17;97844.16;;;8.22;96.36
10470;BME280;5282;47.052;15.458;2023-04-27T06:28:47;97849.44;;;8.13;90.01
10470;BME280;5282;47.052;15.458;2023-04-27T06:31:14;97844.50;;;8.09;99.41
10470;BME280;5282;47.052;15.458;2023-04-27T06:33:42;97848.72;;;8.01;94.99
10470;BME280;5282;47.052;15.458;2023-04-27T06:36:09;97847.44;;;8.15;94.36
10470;BME280;5282;47.052;15.458;2023-04-27T06:38:36;97844.88;;;8.33;88.97
10470;BME280;5282;47.052;15.458;2023-04-27T06:41:03;97835.78;;;8.54;83.25
10470;BME280;5282;47.052;15.458;2023-04-27T06:43:32;97835.34;;;8.87;82.56
10470;BME280;5282;47.052;15.458;2023-04-27T06:45:59;97838.97;;;8.95;77.09
10470;BME280;5282;47.052;15.458;2023-04-27T06:48:26;97851.50;;;9.05;76.62
10470;BME280;5282;47.052;15.458;2023-04-27T06:50:54;97844.63;;;8.92;78.08
10470;BME280;5282;47.052;15.458;2023-04-27T06:53:22;97844.84;;;9.09;70.68
10470;BME280;5282;47.052;15.458;2023-04-27T06:55:49;97836.97;;;8.98;62.38
10470;BME280;5282;47.052;15.458;2023-04-27T06:58:16;97848.69;;;8.69;69.54
10470;BME280;5282;47.052;15.458;2023-04-27T07:00:43;97848.03;;;8.67;61.68
10470;BME280;5282;47.052;15.458;2023-04-27T07:03:09;97849.94;;;8.74;65.24
10470;BME280;5282;47.052;15.458;2023-04-27T07:05:36;97847.81;;;9.06;65.99
10470;BME280;5282;47.052;15.458;2023-04-27T07:08:05;97854.81;;;8.89;58.01
10470;BME280;5282;47.052;15.458;2023-04-27T07:10:32;97856.38;;;8.91;59.09
10470;BME280;5282;47.052;15.458;2023-04-27T07:12:59;97847.44;;;9.01;58.81
10470;BME280;5282;47.052;15.458;2023-04-27T07:15:26;97849.28;;;9.18;59.10
10470;BME280;5282;47.052;15.458;2023-04-27T07:17:53;97841.56;;;9.33;56.52
10470;BME280;5282;47.052;15.458;2023-04-27T07:20:21;97834.50;;;9.32;55.45
10470;BME280;5282;47.052;15.458;2023-04-27T07:22:47;97843.63;;;9.21;55.89
10470;BME280;5282;47.052;15.458;2023-04-27T07:25:16;97843.63;;;9.21;60.54
10470;BME280;5282;47.052;15.458;2023-04-27T07:27:43;97836.13;;;9.43;60.28
10470;BME280;5282;47.052;15.458;2023-04-27T07:30:11;97832.72;;;9.41;59.17
10470;BME280;5282;47.052;15.458;2023-04-27T07:32:41;97830.50;;;9.18;61.27
10470;BME280;5282;47.052;15.458;2023-04-27T07:35:09;97830.13;;;9.49;59.20
10470;BME280;5282;47.052;15.458;2023-04-27T07:37:36;97833.28;;;9.63;60.14
10470;BME280;5282;47.052;15.458;2023-04-27T07:40:06;97833.19;;;9.54;62.29
10470;BME280;5282;47.052;15.458;2023-04-27T07:42:42;97830.06;;;9.59;59.73
10470;BME280;5282;47.052;15.458;2023-04-27T07:45:09;97823.91;;;9.85;54.76
10470;BME280;5282;47.052;15.458;2023-04-27T07:47:36;97827.97;;;9.89;52.10
10470;BME280;5282;47.052;15.458;2023-04-27T07:50:04;97829.03;;;9.78;53.14
10470;BME280;5282;47.052;15.458;2023-04-27T07:52:33;97826.41;;;9.86;51.93
10470;BME280;5282;47.052;15.458;2023-04-27T07:55:00;97828.34;;;9.76;51.64
10470;BME280;5282;47.052;15.458;2023-04-27T07:57:27;97827.16;;;9.97;54.75
10470;BME280;5282;47.052;15.458;2023-04-27T07:59:58;97827.19;;;10.23;51.14
10470;BME280;5282;47.052;15.458;2023-04-27T08:02:26;97828.69;;;10.17;52.67
10470;BME280;5282;47.052;15.458;2023-04-27T08:04:54;97828.69;;;10.17;53.43
10470;BME280;5282;47.052;15.458;2023-04-27T08:07:21;97824.34;;;10.25;54.15
10470;BME280;5282;47.052;15.458;2023-04-27T08:09:49;97826.00;;;10.44;53.79
10470;BME280;5282;47.052;15.458;2023-04-27T08:12:17;97819.16;;;10.58;51.49
10470;BME280;5282;47.052;15.458;2023-04-27T08:14:44;97824.97;;;10.71;51.14
10470;BME280;5282;47.052;15.458;2023-04-27T08:17:13;97825.00;;;10.79;50.13
10470;BME280;5282;47.052;15.458;2023-04-27T08:19:40;97825.16;;;10.43;50.83
10470;BME280;5282;47.052;15.458;2023-04-27T08:22:07;97826.06;;;10.60;50.06
10470;BME280;5282;47.052;15.458;2023-04-27T08:24:34;97821.63;;;10.77;51.50
10470;BME280;5282;47.052;15.458;2023-04-27T08:27:02;97817.97;;;10.87;51.30
10470;BME280;5282;47.052;15.458;2023-04-27T08:29:28;97820.72;;;11.11;51.10
10470;BME280;5282;47.052;15.458;2023-04-27T08:31:58;97817.72;;;11.23;49.76
10470;BME280;5282;47.052;15.458;2023-04-27T08:34:27;97819.28;;;11.42;48.87
10470;BME280;5282;47.052;15.458;2023-04-27T08:36:55;97819.78;;;11.37;48.58
10470;BME280;5282;47.052;15.458;2023-04-27T08:39:22;97821.50;;;11.55;49.82
10470;BME280;5282;47.052;15.458;2023-04-27T08:41:49;97831.94;;;11.58;48.09
10470;BME280;5282;47.052;15.458;2023-04-27T08:44:16;97815.97;;;11.73;47.06
10470;BME280;5282;47.052;15.458;2023-04-27T08:46:45;97816.13;;;11.88;46.51
10470;BME280;5282;47.052;15.458;2023-04-27T08:49:12;97814.75;;;11.84;46.78
10470;BME280;5282;47.052;15.458;2023-04-27T08:51:40;97819.47;;;11.49;46.42
10470;BME280;5282;47.052;15.458;2023-04-27T08:54:08;97811.91;;;11.69;49.07
10470;BME280;5282;47.052;15.458;2023-04-27T08:56:35;97810.41;;;11.99;47.95
10470;BME280;5282;47.052;15.458;2023-04-27T08:59:02;97804.63;;;12.27;47.65
10470;BME280;5282;47.052;15.458;2023-04-27T09:01:29;97802.41;;;12.39;47.43
10470;BME280;5282;47.052;15.458;2023-04-27T09:03:59;97798.34;;;12.43;47.03
10470;BME280;5282;47.052;15.458;2023-04-27T09:06:31;97797.53;;;12.34;51.73
10470;BME280;5282;47.052;15.458;2023-04-27T09:09:00;97798.56;;;12.33;49.68
10470;BME280;5282;47.052;15.458;2023-04-27T09:11:28;97795.50;;;12.45;49.08
10470;BME280;5282;47.052;15.458;2023-04-27T09:13:57;97799.13;;;12.60;48.31
10470;BME280;5282;47.052;15.458;2023-04-27T09:16:26;97800.56;;;12.48;48.30
10470;BME280;5282;47.052;15.458;2023-04-27T09:18:54;97801.03;;;12.52;50.08
10470;BME280;5282;47.052;15.458;2023-04-27T09:21:22;97792.41;;;12.56;47.58
10470;BME280;5282;47.052;15.458;2023-04-27T09:23:50;97789.22;;;12.92;48.58
10470;BME280;5282;47.052;15.458;2023-04-27T09:26:24;97787.13;;;13.34;47.88
10470;BME280;5282;47.052;15.458;2023-04-27T09:28:52;97792.69;;;13.41;46.49
10470;BME280;5282;47.052;15.458;2023-04-27T09:31:21;97782.38;;;13.36;47.09
10470;BME280;5282;47.052;15.458;2023-04-27T09:33:56;97779.25;;;13.24;48.18
10470;BME280;5282;47.052;15.458;2023-04-27T09:36:23;97783.09;;;13.62;47.27
10470;BME280;5282;47.052;15.458;2023-04-27T09:38:51;97775.75;;;13.47;45.68
10470;BME280;5282;47.052;15.458;2023-04-27T09:41:19;97765.03;;;13.92;46.65
10470;BME280;5282;47.052;15.458;2023-04-27T09:43:48;97760.31;;;14.09;46.13
10470;BME280;5282;47.052;15.458;2023-04-27T09:46:15;97766.91;;;14.30;44.89
10470;BME280;5282;47.052;15.458;2023-04-27T09:48:43;97764.56;;;14.42;44.58
10470;BME280;5282;47.052;15.458;2023-04-27T09:51:10;97757.66;;;14.39;44.29
10470;BME280;5282;47.052;15.458;2023-04-27T09:53:40;97755.13;;;14.53;45.79
10470;BME280;5282;47.052;15.458;2023-04-27T09:56:23;97751.66;;;14.74;44.45
10470;BME280;5282;47.052;15.458;2023-04-27T09:59:20;97746.00;;;14.69;44.70
10470;BME280;5282;47.052;15.458;2023-04-27T10:01:54;97747.66;;;14.85;45.19
10470;BME280;5282;47.052;15.458;2023-04-27T10:04:36;97748.59;;;15.14;43.29
10470;BME280;5282;47.052;15.458;2023-04-27T10:07:10;97744.22;;;14.31;43.70
10470;BME280;5282;47.052;15.458;2023-04-27T10:09:40;97747.84;;;14.68;45.87
10470;BME280;5282;47.052;15.458;2023-04-27T10:12:16;97751.00;;;14.42;44.08
10470;BME280;5282;47.052;15.458;2023-04-27T10:14:49;97747.84;;;14.38;44.22
10470;BME280;5282;47.052;15.458;2023-04-27T10:17:17;97752.19;;;13.56;45.20
10470;BME280;5282;47.052;15.458;2023-04-27T10:19:55;97747.91;;;13.62;45.96
10470;BME280;5282;47.052;15.458;2023-04-27T10:22:23;97750.38;;;12.93;47.60
10470;BME280;5282;47.052;15.458;2023-04-27T10:24:51;97741.59;;;13.46;47.77
10470;BME280;5282;47.052;15.458;2023-04-27T10:27:18;97737.28;;;13.75;46.95
10470;BME280;5282;47.052;15.458;2023-04-27T10:29:49;97737.47;;;13.58;47.67
10470;BME280;5282;47.052;15.458;2023-04-27T10:32:20;97736.25;;;14.14;46.85
10470;BME280;5282;47.052;15.458;2023-04-27T10:34:48;97725.50;;;14.51;45.96
10470;BME280;5282;47.052;15.458;2023-04-27T10:37:16;97723.25;;;14.85;44.35
10470;BME280;5282;47.052;15.458;2023-04-27T10:39:46;97723.16;;;15.15;44.96
10470;BME280;5282;47.052;15.458;2023-04-27T10:42:24;97719.56;;;15.51;44.56
10470;BME280;5282;47.052;15.458;2023-04-27T10:44:56;97719.38;;;15.52;44.29
10470;BME280;5282;47.052;15.458;2023-04-27T10:47:23;97716.34;;;15.40;44.74
10470;BME280;5282;47.052;15.458;2023-04-27T10:49:52;97713.06;;;14.57;43.68
10470;BME280;5282;47.052;15.458;2023-04-27T10:52:19;97711.69;;;14.46;45.01
10470;BME280;5282;47.052;15.458;2023-04-27T10:54:46;97708.75;;;14.92;44.58
10470;BME280;5282;47.052;15.458;2023-04-27T10:57:14;97712.00;;;15.24;43.71
10470;BME280;5282;47.052;15.458;2023-04-27T10:59:48;97708.31;;;15.10;45.21
10470;BME280;5282;47.052;15.458;2023-04-27T11:02:17;97705.88;;;14.79;43.78
10470;BME280;5282;47.052;15.458;2023-04-27T11:04:50;97706.25;;;15.13;47.24
10470;BME280;5282;47.052;15.458;2023-04-27T11:07:23;97707.28;;;14.60;44.96
10470;BME280;5282;47.052;15.458;2023-04-27T11:09:50;97702.25;;;15.08;45.27
10470;BME280;5282;47.052;15.458;2023-04-27T11:12:17;97702.38;;;15.43;45.12
10470;BME280;5282;47.052;15.458;2023-04-27T11:14:44;97717.56;;;14.79;43.06
10470;BME280;5282;47.052;15.458;2023-04-27T11:17:12;97713.16;;;15.37;43.88
10470;BME280;5282;47.052;15.458;2023-04-27T11:19:46;97701.72;;;15.41;45.82
10470;BME280;5282;47.052;15.458;2023-04-27T11:22:15;97704.59;;;15.33;45.03
10470;BME280;5282;47.052;15.458;2023-04-27T11:24:46;97704.97;;;15.52;42.41
10470;BME280;5282;47.052;15.458;2023-04-27T11:27:13;97710.59;;;15.50;42.57
10470;BME280;5282;47.052;15.458;2023-04-27T11:29:40;97703.00;;;15.67;43.62
10470;BME280;5282;47.052;15.458;2023-04-27T11:32:17;97700.03;;;15.62;42.38
10470;BME280;5282;47.052;15.458;2023-04-27T11:34:49;97704.59;;;15.33;44.09
10470;BME280;5282;47.052;15.458;2023-04-27T11:37:20;97700.44;;;15.16;45.41
10470;BME280;5282;47.052;15.458;2023-04-27T11:39:49;97691.09;;;15.18;46.40
10470;BME280;5282;47.052;15.458;2023-04-27T11:42:17;97700.38;;;15.31;45.71
10470;BME280;5282;47.052;15.458;2023-04-27T11:44:52;97693.00;;;14.66;45.91
10470;BME280;5282;47.052;15.458;2023-04-27T11:47:19;97704.84;;;14.80;46.23
10470;BME280;5282;47.052;15.458;2023-04-27T11:49:47;97707.03;;;14.10;47.00
10470;BME280;5282;47.052;15.458;2023-04-27T11:52:16;97702.13;;;13.75;47.59
10470;BME280;5282;47.052;15.458;2023-04-27T11:54:47;97702.84;;;14.07;47.72
10470;BME280;5282;47.052;15.458;2023-04-27T11:57:15;97696.56;;;14.07;48.41
10470;BME280;5282;47.052;15.458;2023-04-27T11:59:42;97699.47;;;14.20;48.64
10470;BME280;5282;47.052;15.458;2023-04-27T12:02:09;97706.34;;;13.78;49.12
10470;BME280;5282;47.052;15.458;2023-04-27T12:04:36;97703.09;;;13.82;48.42
10470;BME280;5282;47.052;15.458;2023-04-27T12:07:03;97705.34;;;14.09;48.84
10470;BME280;5282;47.052;15.458;2023-04-27T12:09:33;97707.38;;;13.92;49.25
10470;BME280;5282;47.052;15.458;2023-04-27T12:12:00;97706.06;;;13.87;49.05
10470;BME280;5282;47.052;15.458;2023-04-27T12:14:28;97705.72;;;14.06;49.59
10470;BME280;5282;47.052;15.458;2023-04-27T12:16:54;97704.59;;;14.00;47.86
10470;BME280;5282;47.052;15.458;2023-04-27T12:19:21;97705.44;;;13.85;49.30
10470;BME280;5282;47.052;15.458;2023-04-27T12:21:50;97712.75;;;13.62;49.43
10470;BME280;5282;47.052;15.458;2023-04-27T12:24:17;97700.81;;;13.71;48.75
10470;BME280;5282;47.052;15.458;2023-04-27T12:26:45;97692.63;;;13.94;48.04
10470;BME280;5282;47.052;15.458;2023-04-27T12:29:13;97690.88;;;14.16;48.71
10470;BME280;5282;47.052;15.458;2023-04-27T12:31:40;97695.91;;;14.49;48.03
10470;BME280;5282;47.052;15.458;2023-04-27T12:34:07;97691.97;;;14.67;48.04
10470;BME280;5282;47.052;15.458;2023-04-27T12:36:34;97695.13;;;14.86;46.28
10470;BME280;5282;47.052;15.458;2023-04-27T12:39:12;97689.38;;;14.95;45.44
10470;BME280;5282;47.052;15.458;2023-04-27T12:41:39;97692.56;;;14.99;47.28
10470;BME280;5282;47.052;15.458;2023-04-27T12:44:08;97688.31;;;15.11;46.61
10470;BME280;5282;47.052;15.458;2023-04-27T12:46:35;97689.88;;;15.21;45.36
10470;BME280;5282;47.052;15.458;2023-04-27T12:49:02;97687.22;;;14.54;45.63
10470;BME280;5282;47.052;15.458;2023-04-27T12:51:30;97685.53;;;14.38;45.39
10470;BME280;5282;47.052;15.458;2023-04-27T12:53:58;97681.44;;;14.27;43.29
10470;BME280;5282;47.052;15.458;2023-04-27T12:56:25;97688.63;;;14.35;42.73
10470;BME280;5282;47.052;15.458;2023-04-27T12:58:52;97687.56;;;14.66;43.46
10470;BME280;5282;47.052;15.458;2023-04-27T13:01:21;97686.84;;;14.57;44.93
10470;BME280;5282;47.052;15.458;2023-04-27T13:03:51;97690.19;;;14.74;45.46
10470;BME280;5282;47.052;15.458;2023-04-27T13:06:19;97684.19;;;14.79;46.97